createdAt,value
2022-11-15T00:08:34.116Z,75999.47
2022-11-15T00:18:58.379Z,76013.63
2022-11-15T00:29:18.728Z,76017.66
2022-11-15T00:39:39.502Z,76005.53
2022-11-15T00:50:00.047Z,75997.44
2022-11-15T01:00:20.525Z,75983.25
2022-11-15T01:10:43.482Z,75958.97
2022-11-15T01:21:12.160Z,75954.94
2022-11-15T01:31:32.904Z,75952.91
2022-11-15T01:41:58.446Z,75948.84
2022-11-15T01:52:21.519Z,75930.63
2022-11-15T02:02:43.605Z,75916.47
2022-11-15T02:13:04.153Z,75880.03
2022-11-15T02:23:58.449Z,75886.13
2022-11-15T02:35:06.058Z,75898.25
2022-11-15T02:45:33.362Z,75908.38
2022-11-15T02:55:56.953Z,75884.09
2022-11-15T03:06:21.016Z,75880.03
2022-11-15T03:16:55.555Z,75876.00
2022-11-15T03:27:19.077Z,75847.66
2022-11-15T03:37:47.145Z,75835.53
2022-11-15T03:48:15.758Z,75809.22
2022-11-15T03:58:36.493Z,75807.19
2022-11-15T04:08:56.781Z,75813.25
2022-11-15T04:19:36.257Z,75819.31
2022-11-15T04:29:58.272Z,75807.19
2022-11-15T04:40:19.522Z,75793.03
2022-11-15T04:50:40.390Z,75797.06
2022-11-15T05:01:09.007Z,75811.22
2022-11-15T05:11:30.223Z,75809.22
2022-11-15T05:21:51.376Z,75807.19
2022-11-15T05:32:17.512Z,75797.06
2022-11-15T05:42:43.366Z,75786.94
2022-11-15T05:53:07.125Z,75791.00
2022-11-15T06:03:31.218Z,75768.72
2022-11-15T06:13:52.235Z,75788.97
2022-11-15T06:24:12.734Z,75797.06
2022-11-15T06:34:34.293Z,75811.22
2022-11-15T06:44:55.382Z,75799.09
2022-11-15T06:55:16.156Z,75786.94
2022-11-15T07:05:37.235Z,75764.69
2022-11-15T07:15:57.784Z,75786.94
2022-11-15T07:26:22.436Z,75799.09
2022-11-15T07:36:46.578Z,75813.25
2022-11-15T07:47:07.143Z,75801.13
2022-11-15T07:57:35.088Z,75799.09
2022-11-15T08:08:01.590Z,75762.66
2022-11-15T08:18:24.805Z,75750.53
2022-11-15T08:28:45.404Z,75714.09
2022-11-15T08:39:06.355Z,75714.09
2022-11-15T08:49:31.514Z,75726.22
2022-11-15T08:59:52.099Z,75750.53
2022-11-15T09:10:15.426Z,75736.34
2022-11-15T09:20:39.947Z,75687.78
2022-11-15T09:31:07.457Z,75663.50
2022-11-15T09:41:56.075Z,75663.50
2022-11-15T09:52:19.046Z,75673.63
2022-11-15T10:02:39.703Z,75623.03
2022-11-15T10:12:49.287Z,75600.75
2022-11-15T10:22:53.105Z,75580.53
2022-11-15T10:32:56.343Z,75594.69
2022-11-15T10:43:15.202Z,75556.25
2022-11-15T10:53:33.472Z,75564.34
2022-11-15T11:03:41.253Z,75544.09
2022-11-15T11:13:49.660Z,75467.19
2022-11-15T11:24:27.010Z,75495.53
2022-11-15T11:34:57.850Z,75471.25
2022-11-15T11:45:17.184Z,75451.00
2022-11-15T11:55:24.765Z,75434.81
2022-11-15T12:05:41.111Z,75418.63
2022-11-15T12:15:44.732Z,75402.44
2022-11-15T12:25:51.729Z,75398.38
2022-11-15T12:36:02.425Z,75386.25
2022-11-15T12:46:11.703Z,75398.38
2022-11-15T12:56:13.685Z,75398.38
2022-11-15T13:06:38.819Z,75372.09
2022-11-15T13:16:46.917Z,75390.28
2022-11-15T13:26:48.929Z,75386.25
2022-11-15T13:36:55.633Z,75349.81
2022-11-15T13:47:34.121Z,75361.97
2022-11-15T13:57:51.951Z,75337.69
2022-11-15T14:08:04.059Z,75317.44
2022-11-15T14:18:10.100Z,75347.78
2022-11-15T14:28:12.059Z,75374.09
2022-11-15T14:38:16.311Z,75382.19
2022-11-15T14:48:21.414Z,75402.44
2022-11-15T14:58:25.795Z,75366.00
2022-11-15T15:08:33.354Z,75378.16
2022-11-15T15:18:43.245Z,75406.47
2022-11-15T15:28:45.404Z,75402.44
2022-11-15T15:38:47.964Z,75442.91
2022-11-15T15:48:53.004Z,75418.63
2022-11-15T15:58:57.677Z,75446.97
2022-11-15T16:09:17.410Z,75436.84
2022-11-15T16:19:24.702Z,75442.91
2022-11-15T16:29:27.096Z,75509.69
2022-11-15T16:39:32.411Z,75529.94
2022-11-15T16:49:36.731Z,75546.13
2022-11-15T16:59:43.465Z,75544.09
2022-11-15T17:09:45.429Z,75540.03
2022-11-15T17:19:47.498Z,75519.81
2022-11-15T17:29:51.189Z,75517.78
2022-11-15T17:39:55.396Z,75556.25
2022-11-15T17:49:59.695Z,75564.34
2022-11-15T18:00:05.158Z,75564.34
2022-11-15T18:10:07.682Z,75584.56
2022-11-15T18:20:12.555Z,75598.72
2022-11-15T18:30:17.200Z,75590.63
2022-11-15T18:40:19.178Z,75580.53
2022-11-15T18:50:23.525Z,75578.50
2022-11-15T19:00:26.824Z,75602.78
2022-11-15T19:10:34.736Z,75621.00
2022-11-15T19:20:39.156Z,75643.25
2022-11-15T19:30:43.169Z,75616.94
2022-11-15T19:40:45.278Z,75604.81
2022-11-15T19:51:01.947Z,75612.91
2022-11-15T20:01:21.971Z,75598.72
2022-11-15T20:11:26.802Z,75582.53
2022-11-15T20:21:34.226Z,75562.31
2022-11-15T20:31:39.410Z,75570.41
2022-11-15T20:41:41.367Z,75596.72
2022-11-15T20:51:43.371Z,75625.03
2022-11-15T21:01:53.000Z,75616.94
2022-11-15T21:12:15.725Z,75602.78
2022-11-15T21:22:19.922Z,75612.91
2022-11-15T21:32:24.245Z,75596.72
2022-11-15T21:42:26.374Z,75576.47
2022-11-15T21:52:30.835Z,75572.44
2022-11-15T22:02:40.278Z,75568.38
2022-11-15T22:12:44.604Z,75582.53
2022-11-15T22:22:46.695Z,75485.41
2022-11-15T22:32:51.194Z,75507.66
2022-11-15T22:42:55.846Z,75527.91
2022-11-15T22:52:57.947Z,75503.63
2022-11-15T23:03:00.060Z,75499.56
2022-11-15T23:13:19.522Z,75493.50
2022-11-15T23:23:24.227Z,75487.44
2022-11-15T23:33:44.751Z,75495.53
2022-11-15T23:43:49.230Z,75481.34
2022-11-15T23:53:53.775Z,75473.25
